createdAt,value
2018-06-13T00:00:19.491Z,970.26
2018-06-13T00:01:19.430Z,970.27
2018-06-13T00:02:19.348Z,970.28
2018-06-13T00:03:19.281Z,970.28
2018-06-13T00:04:19.203Z,970.27
2018-06-13T00:05:19.137Z,970.29
2018-06-13T00:06:19.057Z,970.26
2018-06-13T00:07:18.993Z,970.26
2018-06-13T00:08:18.912Z,970.23
2018-06-13T00:09:18.850Z,970.23
2018-06-13T00:10:18.768Z,970.24
2018-06-13T00:11:18.706Z,970.23
2018-06-13T00:12:18.624Z,970.17
2018-06-13T00:13:18.559Z,970.18
2018-06-13T00:14:18.477Z,970.17
2018-06-13T00:15:18.412Z,970.16
2018-06-13T00:16:18.335Z,970.17
2018-06-13T00:17:18.273Z,970.17
2018-06-13T00:18:18.191Z,970.17
2018-06-13T00:19:18.126Z,970.22
2018-06-13T00:20:18.046Z,970.19
2018-06-13T00:21:17.978Z,970.20
2018-06-13T00:22:17.900Z,970.20
2018-06-13T00:23:17.837Z,970.19
2018-06-13T00:24:17.754Z,970.14
2018-06-13T00:25:17.729Z,970.19
2018-06-13T00:26:17.613Z,970.19
2018-06-13T00:27:17.542Z,970.21
2018-06-13T00:28:17.464Z,970.22
2018-06-13T00:29:17.399Z,970.20
2018-06-13T00:30:17.324Z,970.21
2018-06-13T00:31:17.259Z,970.20
2018-06-13T00:32:17.174Z,970.22
2018-06-13T00:33:17.111Z,970.22
2018-06-13T00:34:17.034Z,970.20
2018-06-13T00:35:16.965Z,970.21
2018-06-13T00:36:16.885Z,970.20
2018-06-13T00:37:16.820Z,970.19
2018-06-13T00:38:16.743Z,970.18
2018-06-13T00:39:16.682Z,970.20
2018-06-13T00:40:16.593Z,970.20
2018-06-13T00:41:16.533Z,970.22
2018-06-13T00:42:16.447Z,970.21
2018-06-13T00:43:16.385Z,970.18
2018-06-13T00:44:16.303Z,970.18
2018-06-13T00:45:16.245Z,970.19
2018-06-13T00:46:16.160Z,970.16
2018-06-13T00:47:16.095Z,970.14
2018-06-13T00:48:16.015Z,970.15
2018-06-13T00:49:15.951Z,970.16
2018-06-13T00:50:15.871Z,970.15
2018-06-13T00:51:15.806Z,970.16
2018-06-13T00:52:15.724Z,970.16
2018-06-13T00:53:15.660Z,970.20
2018-06-13T00:54:15.584Z,970.20
2018-06-13T00:55:15.517Z,970.22
2018-06-13T00:56:15.436Z,970.18
2018-06-13T00:57:15.371Z,970.19
2018-06-13T00:58:15.295Z,970.24
2018-06-13T00:59:15.225Z,970.21
2018-06-13T01:00:15.143Z,970.17
2018-06-13T01:01:15.085Z,970.15
2018-06-13T01:02:15.000Z,970.16
2018-06-13T01:03:14.940Z,970.17
2018-06-13T01:04:14.855Z,970.14
2018-06-13T01:05:14.792Z,970.14
2018-06-13T01:06:14.713Z,970.13
2018-06-13T01:07:14.645Z,970.14
2018-06-13T01:08:14.565Z,970.11
2018-06-13T01:09:14.497Z,970.11
2018-06-13T01:10:14.419Z,970.11
2018-06-13T01:11:14.351Z,970.08
2018-06-13T01:12:14.275Z,970.12
2018-06-13T01:13:14.209Z,970.12
2018-06-13T01:14:14.129Z,970.11
2018-06-13T01:15:14.063Z,970.07
2018-06-13T01:16:13.976Z,970.08
2018-06-13T01:17:13.917Z,970.07
2018-06-13T01:18:13.839Z,970.14
2018-06-13T01:19:13.770Z,970.09
2018-06-13T01:20:13.690Z,970.12
2018-06-13T01:21:13.626Z,970.10
2018-06-13T01:22:13.548Z,970.06
2018-06-13T01:23:13.489Z,970.07
2018-06-13T01:24:13.400Z,970.03
2018-06-13T01:25:13.338Z,970.01
2018-06-13T01:26:13.256Z,970.04
2018-06-13T01:27:13.194Z,970.05
2018-06-13T01:28:13.117Z,970.02
2018-06-13T01:29:13.098Z,970.01
2018-06-13T01:30:12.967Z,970.00
2018-06-13T01:31:12.899Z,970.02
2018-06-13T01:32:12.819Z,969.97
2018-06-13T01:33:12.753Z,969.96
2018-06-13T01:34:12.677Z,969.97
2018-06-13T01:35:12.608Z,969.98
2018-06-13T01:36:12.524Z,969.97
2018-06-13T01:37:12.463Z,969.99
2018-06-13T01:38:12.382Z,969.96
2018-06-13T01:39:12.324Z,969.98
2018-06-13T01:40:12.237Z,969.94
2018-06-13T01:41:12.176Z,969.98
2018-06-13T01:42:12.098Z,969.95
2018-06-13T01:43:12.030Z,969.98
2018-06-13T01:44:11.945Z,969.95
2018-06-13T01:45:11.883Z,969.92
2018-06-13T01:46:11.798Z,969.96
2018-06-13T01:47:11.738Z,969.97
2018-06-13T01:48:11.653Z,969.98
2018-06-13T01:49:11.590Z,969.95
2018-06-13T01:50:11.510Z,969.95
2018-06-13T01:51:11.442Z,969.93
2018-06-13T01:52:11.369Z,969.95
2018-06-13T01:53:11.298Z,969.91
2018-06-13T01:54:11.218Z,969.89
2018-06-13T01:55:11.153Z,969.91
2018-06-13T01:56:11.069Z,969.90
2018-06-13T01:57:11.011Z,969.91
2018-06-13T01:58:10.928Z,969.93
2018-06-13T01:59:10.866Z,969.94
2018-06-13T02:00:10.782Z,969.95
2018-06-13T02:01:10.720Z,969.96
2018-06-13T02:02:10.636Z,969.94
2018-06-13T02:03:10.572Z,970.00
2018-06-13T02:04:10.490Z,969.99
2018-06-13T02:05:10.424Z,970.01
2018-06-13T02:06:10.344Z,970.04
2018-06-13T02:07:10.279Z,970.04
2018-06-13T02:08:10.199Z,970.05
2018-06-13T02:09:10.131Z,970.05
2018-06-13T02:10:10.053Z,970.06
2018-06-13T02:11:09.989Z,970.09
2018-06-13T02:12:09.907Z,970.10
2018-06-13T02:13:09.841Z,970.14
2018-06-13T02:14:09.759Z,970.13
2018-06-13T02:15:09.700Z,970.16
2018-06-13T02:16:09.615Z,970.16
2018-06-13T02:17:09.548Z,970.21
2018-06-13T02:18:09.468Z,970.20
2018-06-13T02:19:09.404Z,970.23
2018-06-13T02:20:10.281Z,970.22
2018-06-13T02:21:09.257Z,970.18
2018-06-13T02:22:09.181Z,970.22
2018-06-13T02:23:09.116Z,970.21
2018-06-13T02:24:09.031Z,970.18
2018-06-13T02:25:08.967Z,970.21
2018-06-13T02:26:08.885Z,970.21
2018-06-13T02:27:08.819Z,970.26
2018-06-13T02:28:08.738Z,970.26
2018-06-13T02:29:08.674Z,970.26
2018-06-13T02:30:08.593Z,970.23
2018-06-13T02:31:08.526Z,970.27
2018-06-13T02:32:08.447Z,970.27
2018-06-13T02:33:08.384Z,970.27
2018-06-13T02:34:08.303Z,970.30
2018-06-13T02:35:08.234Z,970.30
2018-06-13T02:36:08.154Z,970.30
2018-06-13T02:37:08.090Z,970.34
2018-06-13T02:38:08.009Z,970.33
2018-06-13T02:39:07.943Z,970.36
2018-06-13T02:40:07.863Z,970.35
2018-06-13T02:41:07.799Z,970.30
2018-06-13T02:42:07.719Z,970.35
2018-06-13T02:43:07.651Z,970.38
2018-06-13T02:44:07.577Z,970.38
2018-06-13T02:45:07.504Z,970.40
2018-06-13T02:46:07.422Z,970.40
2018-06-13T02:47:07.358Z,970.38
2018-06-13T02:48:07.278Z,970.42
2018-06-13T02:49:07.210Z,970.41
2018-06-13T02:50:07.135Z,970.40
2018-06-13T02:51:07.069Z,970.41
2018-06-13T02:52:06.987Z,970.43
2018-06-13T02:53:06.925Z,970.41
2018-06-13T02:54:06.841Z,970.44
2018-06-13T02:55:06.772Z,970.47
2018-06-13T02:56:06.695Z,970.47
2018-06-13T02:57:06.627Z,970.48
2018-06-13T02:58:06.550Z,970.51
2018-06-13T02:59:06.486Z,970.54
2018-06-13T03:00:06.403Z,970.51
2018-06-13T03:01:06.340Z,970.59
2018-06-13T03:02:06.256Z,970.59
2018-06-13T03:03:06.187Z,970.57
2018-06-13T03:04:06.108Z,970.60
2018-06-13T03:05:06.043Z,970.59
2018-06-13T03:06:05.968Z,970.61
2018-06-13T03:07:05.892Z,970.55
2018-06-13T03:08:05.816Z,970.58
2018-06-13T03:09:05.749Z,970.56
2018-06-13T03:10:05.672Z,970.57
2018-06-13T03:11:05.615Z,970.62
2018-06-13T03:12:05.523Z,970.59
2018-06-13T03:13:05.466Z,970.58
2018-06-13T03:14:05.380Z,970.63
2018-06-13T03:15:05.313Z,970.62
2018-06-13T03:16:05.233Z,970.63
2018-06-13T03:17:05.165Z,970.61
2018-06-13T03:18:05.083Z,970.65
2018-06-13T03:19:05.022Z,970.66
2018-06-13T03:20:04.938Z,970.64
2018-06-13T03:21:04.870Z,970.67
2018-06-13T03:22:04.798Z,970.69
2018-06-13T03:23:04.726Z,970.69
2018-06-13T03:24:04.651Z,970.69
2018-06-13T03:25:04.579Z,970.67
2018-06-13T03:26:04.501Z,970.68
2018-06-13T03:27:04.434Z,970.69
2018-06-13T03:28:04.352Z,970.65
2018-06-13T03:29:04.292Z,970.68
2018-06-13T03:30:04.208Z,970.64
2018-06-13T03:31:04.144Z,970.64
2018-06-13T03:32:04.058Z,970.65
2018-06-13T03:33:03.993Z,970.63
2018-06-13T03:34:03.915Z,970.66
2018-06-13T03:35:03.843Z,970.64
2018-06-13T03:36:03.765Z,970.66
2018-06-13T03:37:03.701Z,970.68
2018-06-13T03:38:03.619Z,970.68
2018-06-13T03:39:03.553Z,970.67
2018-06-13T03:40:03.475Z,970.69
2018-06-13T03:41:03.452Z,970.69
2018-06-13T03:42:03.327Z,970.71
2018-06-13T03:43:03.255Z,970.71
2018-06-13T03:44:03.177Z,970.70
2018-06-13T03:45:03.110Z,970.71
2018-06-13T03:46:03.032Z,970.74
2018-06-13T03:47:02.958Z,970.72
2018-06-13T03:48:02.882Z,970.79
2018-06-13T03:49:02.809Z,970.79
2018-06-13T03:50:02.738Z,970.81
2018-06-13T03:51:02.671Z,970.80
2018-06-13T03:52:02.649Z,970.84
2018-06-13T03:53:02.520Z,970.78
2018-06-13T03:54:02.445Z,970.82
2018-06-13T03:55:02.371Z,970.83
2018-06-13T03:56:02.295Z,970.84
2018-06-13T03:57:02.225Z,970.91
2018-06-13T03:58:02.148Z,970.89
2018-06-13T03:59:02.077Z,970.86
2018-06-13T04:00:02.003Z,970.88
2018-06-13T04:01:01.928Z,970.90
2018-06-13T04:02:01.858Z,970.94
2018-06-13T04:03:01.782Z,970.89
2018-06-13T04:04:01.706Z,970.95
2018-06-13T04:05:01.632Z,970.97
2018-06-13T04:06:01.560Z,971.00
2018-06-13T04:07:01.489Z,971.00
2018-06-13T04:08:01.417Z,970.93
2018-06-13T04:09:01.337Z,970.96
2018-06-13T04:10:01.267Z,971.01
2018-06-13T04:11:01.192Z,971.01
2018-06-13T04:12:01.117Z,970.96
2018-06-13T04:13:01.041Z,971.01
2018-06-13T04:14:00.971Z,971.01
2018-06-13T04:15:00.896Z,970.96
2018-06-13T04:16:00.823Z,971.01
2018-06-13T04:17:00.750Z,971.02
2018-06-13T04:18:00.676Z,971.04
2018-06-13T04:19:00.608Z,971.03
2018-06-13T04:20:00.529Z,971.05
2018-06-13T04:21:00.461Z,971.03
2018-06-13T04:22:00.382Z,971.02
2018-06-13T04:23:00.317Z,971.04
2018-06-13T04:24:00.233Z,971.04
2018-06-13T04:25:00.161Z,971.01
2018-06-13T04:26:00.086Z,971.06
2018-06-13T04:27:00.024Z,971.06
2018-06-13T04:27:59.938Z,971.06
2018-06-13T04:28:59.862Z,971.08
2018-06-13T04:29:59.791Z,971.09
2018-06-13T04:30:59.722Z,971.13
2018-06-13T04:31:59.647Z,971.10
2018-06-13T04:32:59.577Z,971.09
2018-06-13T04:33:59.497Z,971.09
2018-06-13T04:34:59.420Z,971.09
2018-06-13T04:35:59.349Z,971.11
2018-06-13T04:36:59.272Z,971.10
2018-06-13T04:37:59.200Z,971.15
2018-06-13T04:38:59.132Z,971.13
2018-06-13T04:39:59.049Z,971.16
2018-06-13T04:40:58.977Z,971.16
2018-06-13T04:41:58.923Z,971.15
2018-06-13T04:42:58.836Z,971.15
2018-06-13T04:43:58.760Z,971.17
2018-06-13T04:44:58.686Z,971.14
2018-06-13T04:45:58.616Z,971.20
2018-06-13T04:46:58.540Z,971.20
2018-06-13T04:47:58.459Z,971.20
2018-06-13T04:48:58.386Z,971.18
2018-06-13T04:49:58.315Z,971.17
2018-06-13T04:50:58.239Z,971.17
2018-06-13T04:51:58.164Z,971.20
2018-06-13T04:52:58.090Z,971.19
2018-06-13T04:53:58.018Z,971.20
2018-06-13T04:54:57.946Z,971.20
2018-06-13T04:55:57.869Z,971.21
2018-06-13T04:56:57.799Z,971.25
2018-06-13T04:57:57.728Z,971.20
2018-06-13T04:58:57.647Z,971.20
2018-06-13T04:59:57.577Z,971.16
2018-06-13T05:00:57.504Z,971.16
2018-06-13T05:01:57.427Z,971.20
2018-06-13T05:02:57.356Z,971.17
2018-06-13T05:03:57.280Z,971.19
2018-06-13T05:04:57.205Z,971.19
2018-06-13T05:05:57.130Z,971.16
2018-06-13T05:06:57.057Z,971.16
2018-06-13T05:07:56.982Z,971.16
2018-06-13T05:08:56.909Z,971.17
2018-06-13T05:09:56.836Z,971.19
2018-06-13T05:10:56.761Z,971.21
2018-06-13T05:11:56.687Z,971.24
2018-06-13T05:12:56.626Z,971.22
2018-06-13T05:13:56.551Z,971.21
2018-06-13T05:14:56.466Z,971.24
2018-06-13T05:15:56.391Z,971.25
2018-06-13T05:16:56.319Z,971.25
2018-06-13T05:17:56.247Z,971.23
2018-06-13T05:18:56.173Z,971.22
2018-06-13T05:19:56.094Z,971.26
2018-06-13T05:20:56.024Z,971.21
2018-06-13T05:21:55.945Z,971.28
2018-06-13T05:22:55.873Z,971.22
2018-06-13T05:23:55.800Z,971.27
2018-06-13T05:24:55.726Z,971.22
2018-06-13T05:25:55.655Z,971.23
2018-06-13T05:26:55.580Z,971.27
2018-06-13T05:27:55.501Z,971.23
2018-06-13T05:28:55.429Z,971.29
2018-06-13T05:29:55.356Z,971.23
2018-06-13T05:30:55.284Z,971.24
2018-06-13T05:31:55.209Z,971.20
2018-06-13T05:32:55.133Z,971.24
2018-06-13T05:33:55.061Z,971.18
2018-06-13T05:34:54.995Z,971.25
2018-06-13T05:35:54.911Z,971.25
2018-06-13T05:36:54.838Z,971.23
2018-06-13T05:37:54.767Z,971.26
2018-06-13T05:38:54.689Z,971.30
2018-06-13T05:39:54.621Z,971.26
2018-06-13T05:40:54.546Z,971.29
2018-06-13T05:41:54.482Z,971.32
2018-06-13T05:42:54.394Z,971.32
2018-06-13T05:43:54.384Z,971.35
2018-06-13T05:44:54.244Z,971.34
2018-06-13T05:45:54.290Z,971.36
2018-06-13T05:46:54.101Z,971.39
2018-06-13T05:47:54.098Z,971.37
2018-06-13T05:48:53.954Z,971.38
2018-06-13T05:49:53.905Z,971.40
2018-06-13T05:50:53.805Z,971.44
2018-06-13T05:51:53.821Z,971.35
2018-06-13T05:52:53.656Z,971.43
2018-06-13T05:53:53.623Z,971.45
2018-06-13T05:54:53.547Z,971.48
2018-06-13T05:55:53.535Z,971.50
2018-06-13T05:56:53.362Z,971.44
2018-06-13T05:57:53.362Z,971.48
2018-06-13T05:58:53.215Z,971.46
2018-06-13T05:59:53.250Z,971.47
2018-06-13T06:00:53.066Z,971.51
2018-06-13T06:01:53.064Z,971.54
2018-06-13T06:02:52.918Z,971.60
2018-06-13T06:03:52.872Z,971.49
2018-06-13T06:04:52.770Z,971.56
2018-06-13T06:05:52.781Z,971.53
2018-06-13T06:06:52.622Z,971.54
2018-06-13T06:07:52.590Z,971.56
2018-06-13T06:08:52.472Z,971.56
2018-06-13T06:09:52.501Z,971.54
2018-06-13T06:10:52.329Z,971.59
2018-06-13T06:11:52.310Z,971.61
2018-06-13T06:12:52.179Z,971.64
2018-06-13T06:13:52.223Z,971.64
2018-06-13T06:14:52.028Z,971.67
2018-06-13T06:15:52.029Z,971.66
2018-06-13T06:16:51.881Z,971.68
2018-06-13T06:17:51.838Z,971.66
2018-06-13T06:18:51.739Z,971.73
2018-06-13T06:19:51.749Z,971.70
2018-06-13T06:20:51.585Z,971.71
2018-06-13T06:21:51.560Z,971.69
2018-06-13T06:22:51.435Z,971.69
2018-06-13T06:23:51.469Z,971.72
2018-06-13T06:24:51.289Z,971.71
2018-06-13T06:25:51.278Z,971.62
2018-06-13T06:26:51.139Z,971.74
2018-06-13T06:27:51.089Z,971.69
2018-06-13T06:28:50.992Z,971.69
2018-06-13T06:29:51.837Z,971.69
2018-06-13T06:30:50.844Z,971.71
2018-06-13T06:31:50.808Z,971.68
2018-06-13T06:32:50.696Z,971.68
2018-06-13T06:33:50.718Z,971.70
2018-06-13T06:34:50.551Z,971.74
2018-06-13T06:35:50.525Z,971.76
2018-06-13T06:36:50.407Z,971.71
2018-06-13T06:37:50.437Z,971.76
2018-06-13T06:38:50.255Z,971.73
2018-06-13T06:39:50.246Z,971.76
2018-06-13T06:40:50.105Z,971.79
2018-06-13T06:41:50.055Z,971.79
2018-06-13T06:42:49.957Z,971.85
2018-06-13T06:43:49.968Z,971.82
2018-06-13T06:44:49.806Z,971.80
2018-06-13T06:45:49.774Z,971.86
2018-06-13T06:46:49.662Z,971.87
2018-06-13T06:47:49.684Z,971.89
2018-06-13T06:48:49.509Z,971.92
2018-06-13T06:49:49.500Z,971.90
2018-06-13T06:50:49.366Z,971.93
2018-06-13T06:51:49.403Z,971.92
2018-06-13T06:52:49.218Z,972.02
2018-06-13T06:53:49.213Z,972.01
2018-06-13T06:54:49.074Z,972.00
2018-06-13T06:55:49.022Z,972.03
2018-06-13T06:56:48.924Z,972.05
2018-06-13T06:57:48.932Z,972.06
2018-06-13T06:58:48.775Z,972.04
2018-06-13T06:59:48.741Z,972.09
2018-06-13T07:00:48.626Z,972.06
2018-06-13T07:01:48.652Z,972.10
2018-06-13T07:02:48.511Z,972.07
2018-06-13T07:03:48.459Z,972.05
2018-06-13T07:04:48.329Z,972.05
2018-06-13T07:05:48.273Z,972.03
2018-06-13T07:06:48.181Z,972.06
2018-06-13T07:07:48.182Z,972.05
2018-06-13T07:08:48.040Z,972.03
2018-06-13T07:09:47.989Z,972.03
2018-06-13T07:10:47.891Z,972.05
2018-06-13T07:11:47.900Z,972.02
2018-06-13T07:12:47.739Z,972.06
2018-06-13T07:13:47.708Z,972.07
2018-06-13T07:14:47.590Z,972.09
2018-06-13T07:15:47.632Z,972.11
2018-06-13T07:16:47.443Z,972.10
2018-06-13T07:17:47.431Z,972.09
2018-06-13T07:18:47.296Z,972.13
2018-06-13T07:19:47.338Z,972.15
2018-06-13T07:20:47.151Z,972.19
2018-06-13T07:21:47.146Z,972.14
2018-06-13T07:22:47.000Z,972.20
2018-06-13T07:23:46.958Z,972.21
2018-06-13T07:24:46.907Z,972.23
2018-06-13T07:25:46.869Z,972.23
2018-06-13T07:26:46.704Z,972.23
2018-06-13T07:27:46.677Z,972.25
2018-06-13T07:28:46.557Z,972.24
2018-06-13T07:29:46.592Z,972.22
2018-06-13T07:30:46.410Z,972.22
2018-06-13T07:31:46.401Z,972.20
2018-06-13T07:32:46.265Z,972.21
2018-06-13T07:33:46.205Z,972.24
2018-06-13T07:34:46.111Z,972.26
2018-06-13T07:35:46.117Z,972.26
2018-06-13T07:36:45.979Z,972.25
2018-06-13T07:37:45.926Z,972.27
2018-06-13T07:38:45.817Z,972.25
2018-06-13T07:39:45.835Z,972.26
2018-06-13T07:40:45.669Z,972.30
2018-06-13T07:41:45.643Z,972.20
2018-06-13T07:42:45.521Z,972.23
2018-06-13T07:43:45.557Z,972.22
2018-06-13T07:44:45.375Z,972.22
2018-06-13T07:45:45.363Z,972.24
2018-06-13T07:46:45.228Z,972.26
2018-06-13T07:47:45.183Z,972.25
2018-06-13T07:48:45.080Z,972.32
2018-06-13T07:49:49.998Z,972.28
2018-06-13T07:50:44.932Z,972.32
2018-06-13T07:51:44.896Z,972.29
2018-06-13T07:52:44.784Z,972.24
2018-06-13T07:53:49.518Z,972.35
2018-06-13T07:54:44.635Z,972.35
2018-06-13T07:55:45.635Z,972.39
2018-06-13T07:56:44.486Z,972.35
2018-06-13T07:57:45.449Z,972.38
2018-06-13T07:58:44.340Z,972.39
2018-06-13T07:59:44.331Z,972.37
2018-06-13T08:00:44.196Z,972.39
2018-06-13T08:01:44.141Z,972.38
2018-06-13T08:02:44.042Z,972.37
2018-06-13T08:03:44.052Z,972.38
2018-06-13T08:04:43.897Z,972.41
2018-06-13T08:05:43.860Z,972.41
2018-06-13T08:06:43.750Z,972.41
2018-06-13T08:07:43.776Z,972.42
2018-06-13T08:08:43.695Z,972.45
2018-06-13T08:09:43.580Z,972.45
2018-06-13T08:10:43.463Z,972.45
2018-06-13T08:11:43.488Z,972.46
2018-06-13T08:12:43.306Z,972.47
2018-06-13T08:13:43.299Z,972.44
2018-06-13T08:14:43.159Z,972.51
2018-06-13T08:15:43.106Z,972.51
2018-06-13T08:16:43.013Z,972.49
2018-06-13T08:17:43.016Z,972.53
2018-06-13T08:18:42.866Z,972.54
2018-06-13T08:19:42.824Z,972.52
2018-06-13T08:20:42.719Z,972.51
2018-06-13T08:21:42.739Z,972.55
2018-06-13T08:22:42.567Z,972.54
2018-06-13T08:23:42.544Z,972.52
2018-06-13T08:24:42.420Z,972.52
2018-06-13T08:25:42.457Z,972.57
2018-06-13T08:26:42.275Z,972.51
2018-06-13T08:27:42.263Z,972.55
2018-06-13T08:28:42.133Z,972.55
2018-06-13T08:29:42.072Z,972.53
2018-06-13T08:30:41.978Z,972.55
2018-06-13T08:31:41.980Z,972.54
2018-06-13T08:32:41.832Z,972.57
2018-06-13T08:33:41.851Z,972.56
2018-06-13T08:34:41.685Z,972.59
2018-06-13T08:35:41.701Z,972.58
2018-06-13T08:36:41.537Z,972.57
2018-06-13T08:37:41.512Z,972.60
2018-06-13T08:38:41.391Z,972.60
2018-06-13T08:39:41.422Z,972.58
2018-06-13T08:40:41.245Z,972.57
2018-06-13T08:41:41.230Z,972.57
2018-06-13T08:42:41.099Z,972.61
2018-06-13T08:43:41.138Z,972.60
2018-06-13T08:44:40.954Z,972.59
2018-06-13T08:45:40.950Z,972.63
2018-06-13T08:46:40.807Z,972.63
2018-06-13T08:47:40.755Z,972.61
2018-06-13T08:48:40.675Z,972.60
2018-06-13T08:49:40.674Z,972.59
2018-06-13T08:50:40.515Z,972.62
2018-06-13T08:51:40.477Z,972.67
2018-06-13T08:52:40.369Z,972.64
2018-06-13T08:53:40.390Z,972.68
2018-06-13T08:54:40.222Z,972.64
2018-06-13T08:55:40.236Z,972.64
2018-06-13T08:56:40.072Z,972.63
2018-06-13T08:57:40.106Z,972.66
2018-06-13T08:58:39.927Z,972.71
2018-06-13T08:59:39.918Z,972.71
2018-06-13T09:00:39.783Z,972.68
2018-06-13T09:01:39.726Z,972.77
2018-06-13T09:02:39.635Z,972.74
2018-06-13T09:03:39.569Z,972.75
2018-06-13T09:04:39.488Z,972.75
2018-06-13T09:05:39.445Z,972.77
2018-06-13T09:06:39.344Z,972.80
2018-06-13T09:07:39.360Z,972.80
2018-06-13T09:08:39.196Z,972.82
2018-06-13T09:09:39.172Z,972.81
2018-06-13T09:10:39.051Z,972.83
2018-06-13T09:11:39.076Z,972.82
2018-06-13T09:12:38.903Z,972.83
2018-06-13T09:13:38.888Z,972.82
2018-06-13T09:14:38.757Z,972.78
2018-06-13T09:15:38.795Z,972.85
2018-06-13T09:16:38.612Z,972.87
2018-06-13T09:17:38.604Z,972.85
2018-06-13T09:18:38.467Z,972.84
2018-06-13T09:19:38.411Z,972.86
2018-06-13T09:20:38.317Z,972.92
2018-06-13T09:21:38.266Z,972.91
2018-06-13T09:22:38.172Z,972.90
2018-06-13T09:23:38.132Z,972.87
2018-06-13T09:24:38.023Z,972.88
2018-06-13T09:25:38.043Z,972.92
2018-06-13T09:26:37.881Z,972.89
2018-06-13T09:27:37.850Z,972.89
2018-06-13T09:28:37.735Z,972.90
2018-06-13T09:29:37.769Z,972.87
2018-06-13T09:30:37.589Z,972.88
2018-06-13T09:31:37.571Z,972.88
2018-06-13T09:32:37.440Z,972.86
2018-06-13T09:33:37.486Z,972.87
2018-06-13T09:34:37.297Z,972.85
2018-06-13T09:35:37.291Z,972.90
2018-06-13T09:36:37.147Z,972.90
2018-06-13T09:37:37.223Z,972.91
2018-06-13T09:38:37.000Z,972.92
2018-06-13T09:39:36.930Z,972.92
2018-06-13T09:40:36.912Z,972.95
2018-06-13T09:41:36.781Z,972.98
2018-06-13T09:42:36.826Z,972.95
2018-06-13T09:43:36.636Z,972.96
2018-06-13T09:44:36.633Z,972.94
2018-06-13T09:45:36.490Z,972.92
2018-06-13T09:46:36.441Z,972.94
2018-06-13T09:47:36.343Z,972.92
2018-06-13T09:48:36.352Z,972.94
2018-06-13T09:49:36.194Z,972.95
2018-06-13T09:50:36.165Z,972.93
2018-06-13T09:51:36.048Z,972.94
2018-06-13T09:52:36.075Z,972.95
2018-06-13T09:53:35.906Z,972.99
2018-06-13T09:54:35.889Z,972.95
2018-06-13T09:55:35.754Z,972.98
2018-06-13T09:56:35.792Z,972.98
2018-06-13T09:57:35.606Z,972.97
2018-06-13T09:58:35.601Z,973.02
2018-06-13T09:59:35.460Z,973.01
2018-06-13T10:00:35.411Z,973.04
2018-06-13T10:01:35.334Z,973.01
2018-06-13T10:02:35.322Z,973.02
2018-06-13T10:03:35.168Z,973.01
2018-06-13T10:04:35.204Z,973.03
2018-06-13T10:05:35.021Z,973.03
2018-06-13T10:06:35.040Z,973.05
2018-06-13T10:07:34.871Z,973.05
2018-06-13T10:08:34.849Z,973.01
2018-06-13T10:09:34.726Z,972.99
2018-06-13T10:10:34.759Z,973.02
2018-06-13T10:11:34.582Z,973.01
2018-06-13T10:12:34.570Z,973.05
2018-06-13T10:13:34.435Z,973.04
2018-06-13T10:14:34.481Z,973.03
2018-06-13T10:15:34.295Z,973.08
2018-06-13T10:16:34.288Z,973.06
2018-06-13T10:17:34.147Z,973.02
2018-06-13T10:18:34.138Z,973.01
2018-06-13T10:19:33.996Z,973.02
2018-06-13T10:20:34.007Z,973.07
2018-06-13T10:21:33.848Z,973.03
2018-06-13T10:22:33.818Z,973.03
2018-06-13T10:23:33.701Z,973.05
2018-06-13T10:24:33.726Z,973.05
2018-06-13T10:25:33.612Z,973.07
2018-06-13T10:26:33.542Z,973.08
2018-06-13T10:27:33.405Z,973.10
2018-06-13T10:28:33.445Z,973.09
2018-06-13T10:29:33.262Z,973.07
2018-06-13T10:30:33.254Z,973.05
2018-06-13T10:31:33.118Z,973.10
2018-06-13T10:32:33.067Z,973.14
2018-06-13T10:33:32.964Z,973.15
2018-06-13T10:34:32.977Z,973.10
2018-06-13T10:35:32.822Z,973.11
2018-06-13T10:36:32.785Z,973.21
2018-06-13T10:37:32.672Z,973.18
2018-06-13T10:38:32.700Z,973.18
2018-06-13T10:39:32.521Z,973.16
2018-06-13T10:40:32.501Z,973.19
2018-06-13T10:41:32.381Z,973.20
2018-06-13T10:42:32.414Z,973.20
2018-06-13T10:43:32.233Z,973.24
2018-06-13T10:44:32.223Z,973.24
2018-06-13T10:45:32.089Z,973.28
2018-06-13T10:46:32.028Z,973.25
2018-06-13T10:47:31.935Z,973.27
2018-06-13T10:48:31.994Z,973.29
2018-06-13T10:49:31.793Z,973.30
2018-06-13T10:50:31.748Z,973.33
2018-06-13T10:51:31.644Z,973.31
2018-06-13T10:52:31.663Z,973.34
2018-06-13T10:53:31.502Z,973.32
2018-06-13T10:54:31.470Z,973.34
2018-06-13T10:55:31.389Z,973.33
2018-06-13T10:56:31.379Z,973.32
2018-06-13T10:57:31.209Z,973.35
2018-06-13T10:58:31.189Z,973.36
2018-06-13T10:59:31.059Z,973.34
2018-06-13T11:00:31.101Z,973.38
2018-06-13T11:01:30.926Z,973.33
2018-06-13T11:02:30.908Z,973.30
2018-06-13T11:03:30.769Z,973.31
2018-06-13T11:04:30.719Z,973.28
2018-06-13T11:05:30.627Z,973.31
2018-06-13T11:06:30.628Z,973.29
2018-06-13T11:07:30.476Z,973.28
2018-06-13T11:08:30.437Z,973.28
2018-06-13T11:09:30.331Z,973.30
2018-06-13T11:10:30.350Z,973.29
2018-06-13T11:11:30.182Z,973.33
2018-06-13T11:12:30.150Z,973.32
2018-06-13T11:13:30.039Z,973.30
2018-06-13T11:14:30.072Z,973.33
2018-06-13T11:15:29.886Z,973.29
2018-06-13T11:16:29.878Z,973.33
2018-06-13T11:17:29.745Z,973.31
2018-06-13T11:18:29.792Z,973.34
2018-06-13T11:19:29.602Z,973.34
2018-06-13T11:20:29.592Z,973.34
2018-06-13T11:21:29.457Z,973.40
2018-06-13T11:22:29.403Z,973.36
2018-06-13T11:23:29.308Z,973.39
2018-06-13T11:24:29.312Z,973.43
2018-06-13T11:25:29.186Z,973.43
2018-06-13T11:26:29.123Z,973.43
2018-06-13T11:27:29.017Z,973.40
2018-06-13T11:28:29.036Z,973.42
2018-06-13T11:29:28.871Z,973.41
2018-06-13T11:30:28.857Z,973.42
2018-06-13T11:31:28.796Z,973.41
2018-06-13T11:32:28.755Z,973.36
2018-06-13T11:33:28.582Z,973.40
2018-06-13T11:34:28.563Z,973.42
2018-06-13T11:35:28.436Z,973.41
2018-06-13T11:36:28.470Z,973.42
2018-06-13T11:37:28.297Z,973.38
2018-06-13T11:38:28.282Z,973.38
2018-06-13T11:39:28.179Z,973.42
2018-06-13T11:40:28.190Z,973.41
2018-06-13T11:41:28.020Z,973.42
2018-06-13T11:42:28.002Z,973.41
2018-06-13T11:43:27.858Z,973.43
2018-06-13T11:44:27.810Z,973.45
2018-06-13T11:45:27.712Z,973.47
2018-06-13T11:46:27.721Z,973.44
2018-06-13T11:47:27.567Z,973.41
2018-06-13T11:48:27.531Z,973.46
2018-06-13T11:49:27.420Z,973.45
2018-06-13T11:50:27.442Z,973.43
2018-06-13T11:51:27.272Z,973.45
2018-06-13T11:52:27.252Z,973.46
2018-06-13T11:53:27.130Z,973.45
2018-06-13T11:54:27.163Z,973.47
2018-06-13T11:55:26.984Z,973.49
2018-06-13T11:56:26.969Z,973.50
2018-06-13T11:57:26.837Z,973.49
2018-06-13T11:58:26.883Z,973.47
2018-06-13T11:59:26.695Z,973.47
2018-06-13T12:00:26.730Z,973.49
2018-06-13T12:01:26.548Z,973.46
2018-06-13T12:02:26.493Z,973.47
2018-06-13T12:03:26.402Z,973.45
2018-06-13T12:04:26.409Z,973.44
2018-06-13T12:05:26.259Z,973.43
2018-06-13T12:06:26.212Z,973.44
2018-06-13T12:07:26.118Z,973.47
2018-06-13T12:08:26.131Z,973.50
2018-06-13T12:09:25.964Z,973.43
2018-06-13T12:10:25.937Z,973.43
2018-06-13T12:11:25.817Z,973.46
2018-06-13T12:12:25.848Z,973.53
2018-06-13T12:13:25.678Z,973.53
2018-06-13T12:14:25.658Z,973.48
2018-06-13T12:15:25.529Z,973.50
2018-06-13T12:16:25.567Z,973.49
2018-06-13T12:17:25.389Z,973.48
2018-06-13T12:18:25.376Z,973.47
2018-06-13T12:19:25.235Z,973.55
2018-06-13T12:20:25.185Z,973.53
2018-06-13T12:21:25.093Z,973.56
2018-06-13T12:22:25.131Z,973.54
2018-06-13T12:23:24.946Z,973.52
2018-06-13T12:24:24.904Z,973.57
2018-06-13T12:25:24.805Z,973.58
2018-06-13T12:26:24.816Z,973.57
2018-06-13T12:27:24.653Z,973.54